Portada
METAR-TAF:

METAR-TAF

Aeroports :

Al-Hassà, Aràbia Saudita

latitud: 25-18N, longitud: 049-29E, altitud: 179 m

Observació

L'informe es va fer fa 55 minuts, a les 14:00 UTC
Vent 10 kt del Nord/Nord-Oest
Temperatura 43°C
Humitat 10%
Pressió 994 hPa
Visibilitat 10 km o més
sense núvols per sota de 1500 mi sense presència de cumulonimbus.

METAR: OEAH 141400Z 34010KT CAVOK 43/05 Q0994 NOSIG

Hora: 17:55 (14:55 UTC)

Pronòstic

L'informe es va fer fa 3 hores i 55 minuts, a les 11:00 UTC
Pronòstic vàlid del 14 a les 12 UTC al 15 a les 18 UTC
Vent 16 kt del Nord
Visibilitat: 8000 m
Temporalment
l' 14 a les 12 UTC al 14 a les 16 UTC
Visibilitat: 3500 m
torb alta de pols
Evolucionant progressivament
l' 14 a les 16 UTC al 14 a les 18 UTC
Vent 10 kt del Oest

TAF: OEAH 141100Z 1412/1518 35016KT 8000 NSC TEMPO 1412/1416 3500 BLDU BECMG 1416/1418 27010KT

Observacions i pronòstics meteorològics de més de 4000 aeroports (METAR i TAF).

Les estacions disponibles són els punts grocs i vermells al mapa.

Posi el ratolí al punt desitjat per veure el nom de l'estació.

Feu clic per veure les observacions i els pronòstics meteorològics.

Per canviar el mapa: feu clic els botons verds amb una creu de color negre per apropar; al botó verd amb un guió per allunyar la imatge; o en les fletxes verdes per a mapes adjacents.


METAR-TAF: